Archival Weather

Republic

Farmingdale, New York (KFRG)

Report from: Tuesday, January 30, 2024 7:53 AM EST
Current time: Friday, June 21, 2024 2:49 AM EDT

Current weather – Weather history – Daily summaries
Weather forecast

Temperature1.7°C (35.1°F)
Wind chill0.1°C (32.2°F)
Dew point-2.8°C (27.0°F)
Winds 3 kts (1.5 m/s, 3.5 mph) North-Northeast (20°)
Visibility10 mi. (16.1 km)
Clouds Ceiling: Overcast 3,500 ft. (1,067 m)
Altimeter30.22 in.Hg (1023 mB)
Relative humidity72 %
Density altitude-1,880 ft. (-573 m)
Sea-level pressure102.3 kPa (1023 mB, 30.22 in.Hg)
Remarks Fully automated report
Automated weather observing station without precipitation discriminator
Freezing rain sensor not operating
Flight conditions Visual Meteorological Conditions
Raw dataKFRG 301253Z AUTO 02003KT 10SM OVC035 02/M03 A3022 RMK AO1 SLP232 T00171028 FZRANO
An error has occurred. This application may no longer respond until reloaded. Reload 🗙